createdAt,value
2023-12-27T00:00:42.789Z,1.40
2023-12-27T00:03:11.318Z,1.52
2023-12-27T00:05:39.741Z,1.65
2023-12-27T00:08:08.273Z,1.17
2023-12-27T00:10:38.188Z,1.05
2023-12-27T00:13:06.774Z,1.48
2023-12-27T00:15:35.595Z,0.60
2023-12-27T00:18:04.681Z,1.67
2023-12-27T00:20:33.173Z,0.90
2023-12-27T00:23:01.700Z,1.25
2023-12-27T00:25:30.056Z,1.10
2023-12-27T00:28:00.097Z,0.95
2023-12-27T00:30:28.925Z,0.95
2023-12-27T00:32:57.674Z,1.13
2023-12-27T00:35:26.343Z,1.00
2023-12-27T00:37:55.229Z,1.92
2023-12-27T00:40:23.586Z,0.68
2023-12-27T00:42:52.164Z,1.17
2023-12-27T00:45:22.002Z,0.90
2023-12-27T00:47:50.642Z,1.10
2023-12-27T00:50:18.985Z,0.88
2023-12-27T00:52:47.530Z,1.05
2023-12-27T00:55:15.928Z,1.50
2023-12-27T00:57:44.361Z,0.90
2023-12-27T01:00:13.809Z,1.20
2023-12-27T01:02:43.556Z,1.67
2023-12-27T01:05:12.031Z,1.30
2023-12-27T01:07:40.346Z,2.05
2023-12-27T01:10:09.615Z,1.33
2023-12-27T01:12:38.793Z,1.77
2023-12-27T01:15:08.290Z,1.13
2023-12-27T01:17:36.906Z,1.30
2023-12-27T01:20:08.202Z,1.02
2023-12-27T01:22:36.557Z,1.30
2023-12-27T01:25:05.584Z,0.93
2023-12-27T01:27:34.210Z,1.05
2023-12-27T01:30:02.736Z,0.80
2023-12-27T01:32:31.329Z,1.55
2023-12-27T01:34:59.860Z,0.63
2023-12-27T01:37:29.610Z,1.40
2023-12-27T01:39:57.961Z,0.80
2023-12-27T01:42:26.530Z,1.05
2023-12-27T01:44:56.221Z,1.63
2023-12-27T01:47:24.623Z,1.20
2023-12-27T01:49:53.679Z,0.85
2023-12-27T01:52:22.287Z,1.45
2023-12-27T01:54:52.212Z,0.80
2023-12-27T01:57:21.083Z,1.10
2023-12-27T01:59:49.759Z,1.30
2023-12-27T02:02:18.128Z,1.00
2023-12-27T02:04:46.550Z,1.02
2023-12-27T02:07:24.518Z,1.10
2023-12-27T02:10:01.071Z,1.20
2023-12-27T02:12:32.444Z,0.80
2023-12-27T02:15:00.990Z,1.13
2023-12-27T02:17:30.855Z,1.55
2023-12-27T02:20:00.519Z,1.17
2023-12-27T02:22:30.576Z,1.02
2023-12-27T02:25:00.679Z,2.17
2023-12-27T02:27:29.278Z,1.00
2023-12-27T02:29:58.367Z,0.90
2023-12-27T02:32:27.862Z,1.02
2023-12-27T02:34:56.323Z,1.50
2023-12-27T02:37:24.673Z,1.42
2023-12-27T02:39:53.345Z,1.13
2023-12-27T02:42:23.255Z,1.67
2023-12-27T02:44:51.798Z,1.58
2023-12-27T02:47:20.091Z,1.80
2023-12-27T02:49:48.387Z,0.85
2023-12-27T02:52:16.700Z,0.98
2023-12-27T02:54:45.012Z,1.02
2023-12-27T02:57:13.458Z,1.08
2023-12-27T02:59:43.196Z,1.40
2023-12-27T03:02:11.659Z,1.15
2023-12-27T03:04:40.188Z,1.02
2023-12-27T03:07:09.294Z,1.08
2023-12-27T03:09:38.146Z,1.40
2023-12-27T03:12:07.338Z,1.33
2023-12-27T03:14:35.760Z,1.52
2023-12-27T03:17:05.767Z,1.30
2023-12-27T03:19:34.204Z,1.40
2023-12-27T03:22:03.058Z,1.40
2023-12-27T03:27:40.914Z,1.23
2023-12-27T03:30:10.403Z,1.10
2023-12-27T03:32:40.239Z,1.40
2023-12-27T03:35:09.450Z,1.48
2023-12-27T03:37:38.773Z,1.23
2023-12-27T03:40:08.707Z,0.90
2023-12-27T03:42:37.152Z,1.83
2023-12-27T03:45:07.303Z,1.05
2023-12-27T03:47:35.915Z,1.17
2023-12-27T03:50:06.370Z,1.52
2023-12-27T03:52:34.300Z,1.42
2023-12-27T03:55:02.673Z,1.35
2023-12-27T03:57:31.405Z,1.27
2023-12-27T03:59:59.749Z,1.02
2023-12-27T04:02:28.249Z,1.08
2023-12-27T04:04:58.112Z,1.50
2023-12-27T04:07:28.268Z,0.95
2023-12-27T04:09:56.627Z,1.08
2023-12-27T04:12:25.049Z,1.50
2023-12-27T04:14:53.416Z,1.20
2023-12-27T04:17:21.809Z,0.77
2023-12-27T04:19:50.155Z,1.13
2023-12-27T04:22:18.633Z,1.23
2023-12-27T04:24:48.476Z,1.17
2023-12-27T04:27:19.594Z,1.33
2023-12-27T04:29:48.052Z,1.00
2023-12-27T04:32:16.535Z,1.38
2023-12-27T04:34:44.878Z,0.93
2023-12-27T04:37:13.673Z,1.27
2023-12-27T04:39:42.511Z,1.65
2023-12-27T04:42:12.297Z,1.42
2023-12-27T04:44:41.454Z,1.40
2023-12-27T04:47:09.913Z,1.48
2023-12-27T04:49:38.451Z,1.13
2023-12-27T04:52:07.675Z,1.05
2023-12-27T04:54:36.171Z,1.15
2023-12-27T04:57:05.136Z,1.17
2023-12-27T04:59:35.425Z,1.05
2023-12-27T05:02:03.879Z,1.77
2023-12-27T05:04:32.617Z,1.55
2023-12-27T05:07:01.062Z,1.10
2023-12-27T05:09:29.885Z,1.70
2023-12-27T05:11:58.471Z,1.05
2023-12-27T05:14:26.772Z,1.23
2023-12-27T05:16:57.103Z,1.73
2023-12-27T05:19:25.537Z,1.70
2023-12-27T05:21:54.065Z,1.25
2023-12-27T05:24:22.546Z,1.55
2023-12-27T05:26:51.325Z,1.77
2023-12-27T05:29:19.656Z,1.45
2023-12-27T05:31:48.319Z,1.30
2023-12-27T05:34:18.285Z,1.67
2023-12-27T05:36:46.795Z,1.17
2023-12-27T05:39:15.297Z,1.45
2023-12-27T05:41:43.793Z,0.93
2023-12-27T05:44:12.062Z,1.25
2023-12-27T05:46:40.313Z,1.30
2023-12-27T05:49:12.938Z,1.13
2023-12-27T05:51:42.873Z,1.10
2023-12-27T05:54:11.707Z,1.23
2023-12-27T05:56:40.355Z,1.65
2023-12-27T05:59:09.000Z,0.90
2023-12-27T06:01:37.367Z,1.23
2023-12-27T06:04:06.323Z,1.52
2023-12-27T06:06:34.721Z,1.25
2023-12-27T06:09:05.303Z,1.40
2023-12-27T06:11:33.785Z,1.45
2023-12-27T06:14:02.056Z,1.63
2023-12-27T06:16:30.270Z,1.13
2023-12-27T06:19:02.302Z,1.48
2023-12-27T06:21:30.972Z,1.30
2023-12-27T06:23:59.368Z,1.65
2023-12-27T06:26:29.066Z,1.27
2023-12-27T06:28:57.380Z,1.42
2023-12-27T06:31:28.569Z,1.80
2023-12-27T06:33:57.710Z,1.60
2023-12-27T06:36:27.301Z,1.15
2023-12-27T06:38:55.678Z,1.00
2023-12-27T06:41:23.984Z,1.15
2023-12-27T06:43:54.176Z,1.90
2023-12-27T06:46:22.452Z,1.17
2023-12-27T06:48:50.928Z,1.73
2023-12-27T06:51:19.465Z,1.30
2023-12-27T06:53:47.886Z,0.98
2023-12-27T06:56:17.209Z,0.80
2023-12-27T06:58:45.593Z,1.15
2023-12-27T07:01:16.766Z,1.23
2023-12-27T07:03:45.073Z,1.63
2023-12-27T07:06:13.630Z,1.65
2023-12-27T07:08:42.062Z,1.30
2023-12-27T07:11:11.890Z,1.67
2023-12-27T07:13:40.563Z,1.63
2023-12-27T07:16:09.007Z,1.35
2023-12-27T07:18:38.782Z,1.95
2023-12-27T07:21:07.264Z,1.45
2023-12-27T07:23:35.844Z,1.65
2023-12-27T07:26:05.550Z,1.60
2023-12-27T07:28:33.901Z,1.63
2023-12-27T07:31:02.452Z,2.05
2023-12-27T07:33:30.897Z,1.60
2023-12-27T07:36:00.739Z,2.03
2023-12-27T07:38:29.057Z,1.60
2023-12-27T07:40:57.568Z,2.25
2023-12-27T07:43:26.610Z,1.85
2023-12-27T07:45:54.975Z,2.47
2023-12-27T07:48:24.054Z,1.73
2023-12-27T07:50:52.592Z,2.63
2023-12-27T07:53:22.277Z,1.80
2023-12-27T07:55:50.560Z,4.28
2023-12-27T07:58:19.049Z,2.10
2023-12-27T08:00:47.620Z,3.17
2023-12-27T08:03:16.045Z,2.67
2023-12-27T08:05:45.331Z,1.90
2023-12-27T08:08:13.860Z,1.88
2023-12-27T08:10:44.630Z,1.52
2023-12-27T08:13:13.069Z,2.40
2023-12-27T08:15:41.911Z,3.72
2023-12-27T08:18:10.392Z,2.90
2023-12-27T08:20:38.725Z,1.88
2023-12-27T08:23:08.145Z,1.58
2023-12-27T08:25:37.396Z,1.90
2023-12-27T08:28:09.810Z,1.92
2023-12-27T08:30:40.210Z,2.10
2023-12-27T08:33:08.773Z,1.83
2023-12-27T08:35:37.729Z,1.77
2023-12-27T08:38:07.058Z,2.28
2023-12-27T08:40:35.383Z,2.10
2023-12-27T08:43:04.120Z,2.03
2023-12-27T08:45:33.785Z,1.98
2023-12-27T08:48:02.628Z,2.03
2023-12-27T08:50:31.190Z,2.05
2023-12-27T08:52:59.507Z,1.63
2023-12-27T08:55:27.962Z,2.17
2023-12-27T08:57:56.557Z,1.65
2023-12-27T09:00:25.129Z,1.73
2023-12-27T09:02:54.920Z,1.90
2023-12-27T09:05:23.328Z,1.85
2023-12-27T09:07:51.750Z,1.98
2023-12-27T09:10:20.138Z,2.30
2023-12-27T09:12:48.632Z,1.50
2023-12-27T09:15:17.035Z,1.60
2023-12-27T09:17:45.491Z,2.00
2023-12-27T09:20:15.317Z,1.80
2023-12-27T09:22:43.764Z,1.50
2023-12-27T09:25:13.530Z,1.70
2023-12-27T09:27:42.288Z,2.50
2023-12-27T09:30:11.584Z,1.70
2023-12-27T09:32:41.007Z,1.73
2023-12-27T09:35:09.791Z,1.88
2023-12-27T09:37:39.936Z,2.00
2023-12-27T09:40:09.495Z,1.80
2023-12-27T09:42:41.240Z,2.50
2023-12-27T09:45:11.323Z,1.88
2023-12-27T09:47:41.718Z,1.88
2023-12-27T09:50:10.970Z,3.90
2023-12-27T09:52:41.095Z,1.88
2023-12-27T09:55:10.024Z,2.05
2023-12-27T09:57:39.285Z,1.63
2023-12-27T10:00:13.900Z,2.00
2023-12-27T10:02:44.030Z,1.60
2023-12-27T10:05:18.217Z,1.75
2023-12-27T10:07:48.312Z,1.70
2023-12-27T10:10:25.133Z,1.40
2023-12-27T10:12:57.738Z,1.23
2023-12-27T10:15:26.742Z,1.50
2023-12-27T10:17:56.106Z,2.22
2023-12-27T10:20:37.714Z,1.58
2023-12-27T10:23:08.367Z,2.10
2023-12-27T10:25:40.658Z,1.20
2023-12-27T10:28:10.352Z,1.40
2023-12-27T10:30:39.642Z,1.10
2023-12-27T10:33:09.615Z,2.22
2023-12-27T10:35:40.488Z,1.58
2023-12-27T10:38:10.498Z,1.52
2023-12-27T10:40:40.943Z,1.60
2023-12-27T10:43:09.700Z,1.50
2023-12-27T10:45:39.304Z,1.80
2023-12-27T10:48:09.940Z,1.85
2023-12-27T10:50:39.460Z,1.08
2023-12-27T10:53:09.342Z,1.50
2023-12-27T10:55:40.073Z,1.67
2023-12-27T10:58:18.048Z,1.13
2023-12-27T11:00:47.785Z,1.90
2023-12-27T11:03:20.872Z,1.60
2023-12-27T11:05:50.200Z,1.20
2023-12-27T11:08:21.542Z,1.58
2023-12-27T11:10:53.707Z,1.98
2023-12-27T11:13:27.858Z,1.55
2023-12-27T11:15:59.648Z,1.75
2023-12-27T11:18:32.644Z,1.90
2023-12-27T11:21:03.917Z,1.85
2023-12-27T11:23:32.893Z,1.05
2023-12-27T11:26:05.467Z,1.02
2023-12-27T11:28:35.199Z,1.50
2023-12-27T11:31:04.426Z,1.75
2023-12-27T11:33:33.791Z,2.33
2023-12-27T11:36:02.780Z,1.52
2023-12-27T11:38:32.704Z,1.25
2023-12-27T11:41:04.123Z,1.50
2023-12-27T11:43:54.130Z,2.00
2023-12-27T11:46:29.254Z,1.52
2023-12-27T11:49:00.327Z,1.92
2023-12-27T11:51:34.816Z,1.52
2023-12-27T11:54:04.583Z,2.17
2023-12-27T11:56:39.575Z,2.22
2023-12-27T11:59:09.940Z,3.45
2023-12-27T12:01:40.008Z,1.77
2023-12-27T12:04:41.099Z,1.60
2023-12-27T12:07:55.630Z,1.75
2023-12-27T12:10:26.167Z,1.80
2023-12-27T12:12:59.547Z,1.45
2023-12-27T12:15:32.036Z,1.50
2023-12-27T12:18:02.822Z,2.00
2023-12-27T12:20:32.073Z,1.63
2023-12-27T12:23:02.007Z,1.35
2023-12-27T12:25:30.270Z,2.20
2023-12-27T12:28:00.807Z,1.73
2023-12-27T12:30:29.620Z,1.85
2023-12-27T12:32:58.314Z,1.35
2023-12-27T12:35:27.670Z,2.35
2023-12-27T12:37:56.295Z,1.70
2023-12-27T12:40:25.093Z,2.33
2023-12-27T12:42:54.051Z,2.10
2023-12-27T12:45:24.062Z,2.25
2023-12-27T12:47:52.999Z,2.08
2023-12-27T12:50:21.657Z,1.50
2023-12-27T12:52:50.596Z,2.17
2023-12-27T12:55:19.862Z,2.13
2023-12-27T12:57:48.432Z,2.17
2023-12-27T13:00:24.879Z,2.00
2023-12-27T13:02:55.235Z,2.33
2023-12-27T13:05:23.604Z,2.55
2023-12-27T13:07:52.382Z,2.20
2023-12-27T13:10:21.590Z,2.50
2023-12-27T13:12:50.165Z,2.45
2023-12-27T13:15:21.256Z,2.20
2023-12-27T13:17:52.251Z,2.13
2023-12-27T13:20:20.870Z,2.50
2023-12-27T13:22:50.024Z,2.30
2023-12-27T13:25:19.164Z,2.50
2023-12-27T13:27:55.688Z,2.00
2023-12-27T13:30:34.259Z,2.53
2023-12-27T13:33:04.838Z,2.30
2023-12-27T13:35:33.752Z,2.42
2023-12-27T13:38:02.097Z,2.45
2023-12-27T13:40:32.588Z,3.00
2023-12-27T13:43:02.547Z,2.28
2023-12-27T13:45:31.259Z,2.28
2023-12-27T13:47:59.915Z,2.30
2023-12-27T13:50:30.097Z,2.45
2023-12-27T13:52:58.335Z,2.53
2023-12-27T13:55:26.821Z,2.50
2023-12-27T13:57:56.760Z,2.47
2023-12-27T14:00:25.563Z,3.30
2023-12-27T14:02:54.055Z,2.20
2023-12-27T14:05:22.684Z,2.88
2023-12-27T14:07:52.443Z,2.85
2023-12-27T14:10:21.375Z,3.67
2023-12-27T14:12:49.771Z,2.65
2023-12-27T14:15:18.759Z,2.33
2023-12-27T14:17:48.525Z,2.40
2023-12-27T14:20:17.922Z,2.15
2023-12-27T14:22:46.467Z,2.53
2023-12-27T14:25:16.210Z,3.10
2023-12-27T14:27:45.376Z,2.70
2023-12-27T14:30:14.509Z,3.38
2023-12-27T14:32:43.805Z,3.10
2023-12-27T14:35:13.387Z,2.90
2023-12-27T14:37:45.207Z,2.72
2023-12-27T14:40:16.749Z,2.63
2023-12-27T14:42:46.587Z,2.53
2023-12-27T14:45:14.963Z,2.63
2023-12-27T14:47:43.447Z,2.47
2023-12-27T14:50:14.784Z,3.42
2023-12-27T14:52:43.167Z,3.00
2023-12-27T14:55:11.768Z,3.20
2023-12-27T14:57:41.726Z,2.78
2023-12-27T15:00:12.997Z,2.90
2023-12-27T15:02:41.643Z,3.13
2023-12-27T15:05:10.080Z,3.05
2023-12-27T15:07:38.605Z,2.88
2023-12-27T15:15:38.569Z,2.92
2023-12-27T15:18:07.449Z,3.55
2023-12-27T15:20:35.858Z,2.80
2023-12-27T15:23:05.305Z,3.05
2023-12-27T15:25:33.751Z,2.70
2023-12-27T15:28:05.580Z,2.72
2023-12-27T15:30:34.435Z,2.92
2023-12-27T15:33:04.889Z,2.70
2023-12-27T15:35:33.383Z,3.15
2023-12-27T15:38:01.968Z,3.53
2023-12-27T15:40:30.443Z,3.20
2023-12-27T15:42:58.848Z,2.92
2023-12-27T15:45:28.845Z,2.85
2023-12-27T15:47:58.468Z,2.78
2023-12-27T15:50:28.434Z,3.20
2023-12-27T15:52:56.830Z,3.00
2023-12-27T15:55:25.052Z,2.35
2023-12-27T15:57:53.397Z,2.53
2023-12-27T16:00:21.979Z,2.45
2023-12-27T16:02:50.357Z,2.90
2023-12-27T16:05:18.836Z,3.17
2023-12-27T16:07:48.768Z,3.03
2023-12-27T16:10:17.177Z,3.20
2023-12-27T16:12:45.626Z,2.85
2023-12-27T16:15:14.093Z,3.15
2023-12-27T16:17:42.416Z,2.45
2023-12-27T16:20:11.275Z,2.58
2023-12-27T16:22:42.649Z,2.85
2023-12-27T16:25:13.033Z,2.88
2023-12-27T16:27:44.493Z,2.78
2023-12-27T16:30:16.150Z,3.00
2023-12-27T16:32:45.307Z,3.42
2023-12-27T16:35:16.847Z,2.38
2023-12-27T16:37:46.880Z,2.53
2023-12-27T16:40:17.156Z,2.72
2023-12-27T16:42:48.862Z,2.80
2023-12-27T16:45:25.952Z,2.72
2023-12-27T16:47:58.913Z,2.67
2023-12-27T16:50:27.829Z,2.45
2023-12-27T16:52:56.815Z,2.70
2023-12-27T16:55:27.398Z,3.05
2023-12-27T16:57:56.209Z,2.88
2023-12-27T17:00:24.616Z,3.03
2023-12-27T17:02:53.082Z,3.05
2023-12-27T17:05:21.690Z,3.13
2023-12-27T17:07:50.146Z,3.50
2023-12-27T17:10:18.508Z,2.95
2023-12-27T17:12:48.512Z,2.85
2023-12-27T17:15:17.057Z,2.97
2023-12-27T17:17:45.609Z,3.78
2023-12-27T17:20:16.445Z,2.63
2023-12-27T17:22:47.436Z,3.13
2023-12-27T17:25:16.721Z,3.10
2023-12-27T17:27:45.451Z,3.22
2023-12-27T17:30:16.162Z,4.05
2023-12-27T17:32:45.891Z,4.32
2023-12-27T17:35:14.399Z,3.65
2023-12-27T17:37:43.725Z,3.40
2023-12-27T17:40:12.510Z,2.60
2023-12-27T17:42:41.183Z,3.22
2023-12-27T17:45:13.022Z,3.63
2023-12-27T17:47:43.170Z,3.13
2023-12-27T17:50:12.057Z,3.30
2023-12-27T17:52:40.907Z,3.50
2023-12-27T17:55:11.584Z,3.53
2023-12-27T17:57:40.075Z,4.07
2023-12-27T18:00:11.361Z,3.88
2023-12-27T18:02:39.970Z,3.38
2023-12-27T18:05:14.174Z,2.95
2023-12-27T18:07:42.632Z,2.92
2023-12-27T18:10:11.380Z,3.55
2023-12-27T18:12:39.898Z,4.35
2023-12-27T18:15:09.279Z,4.03
2023-12-27T18:17:39.102Z,1.90
2023-12-27T18:20:11.222Z,3.75
2023-12-27T18:22:39.862Z,3.20
2023-12-27T18:25:09.442Z,2.85
2023-12-27T18:27:37.846Z,3.58
2023-12-27T18:30:08.839Z,2.90
2023-12-27T18:32:37.311Z,4.45
2023-12-27T18:35:06.856Z,3.33
2023-12-27T18:37:36.859Z,3.95
2023-12-27T18:40:06.802Z,3.38
2023-12-27T18:42:35.715Z,3.90
2023-12-27T18:45:04.873Z,4.00
2023-12-27T18:47:33.466Z,3.38
2023-12-27T18:50:02.228Z,3.63
2023-12-27T18:52:30.756Z,4.05
2023-12-27T18:55:03.125Z,4.10
2023-12-27T18:57:31.491Z,3.03
2023-12-27T19:00:00.488Z,4.22
2023-12-27T19:02:28.947Z,2.88
2023-12-27T19:04:57.472Z,3.53
2023-12-27T19:07:26.187Z,3.55
2023-12-27T19:09:54.759Z,6.35
2023-12-27T19:12:27.994Z,5.40
2023-12-27T19:14:58.277Z,3.03
2023-12-27T19:17:27.534Z,4.13
2023-12-27T19:19:56.068Z,4.03
2023-12-27T19:22:24.360Z,4.22
2023-12-27T19:24:53.583Z,3.40
2023-12-27T19:27:22.207Z,3.58
2023-12-27T19:29:51.858Z,3.55
2023-12-27T19:32:20.238Z,3.75
2023-12-27T19:34:49.074Z,3.90
2023-12-27T19:37:17.640Z,3.00
2023-12-27T19:39:46.560Z,3.90
2023-12-27T19:42:15.599Z,3.50
2023-12-27T19:44:45.722Z,3.10
2023-12-27T19:47:15.404Z,3.65
2023-12-27T19:49:43.838Z,3.35
2023-12-27T19:52:17.199Z,2.53
2023-12-27T19:54:45.815Z,2.33
2023-12-27T19:57:14.305Z,2.78
2023-12-27T19:59:46.039Z,1.70
2023-12-27T20:02:17.017Z,2.75
2023-12-27T20:04:45.463Z,1.40
2023-12-27T20:07:18.330Z,2.75
2023-12-27T20:09:47.471Z,3.15
2023-12-27T20:12:16.449Z,3.33
2023-12-27T20:14:45.088Z,2.60
2023-12-27T20:17:14.853Z,2.88
2023-12-27T20:19:44.954Z,2.58
2023-12-27T20:22:13.852Z,2.83
2023-12-27T20:24:42.870Z,2.17
2023-12-27T20:27:12.787Z,3.40
2023-12-27T20:29:41.489Z,3.05
2023-12-27T20:32:10.078Z,3.05
2023-12-27T20:34:38.875Z,2.50
2023-12-27T20:37:08.879Z,3.03
2023-12-27T20:39:37.634Z,2.78
2023-12-27T20:42:06.601Z,2.28
2023-12-27T20:44:35.073Z,2.60
2023-12-27T20:47:03.594Z,3.03
2023-12-27T20:49:34.362Z,2.97
2023-12-27T20:52:04.560Z,2.95
2023-12-27T20:54:34.910Z,3.10
2023-12-27T20:57:04.215Z,3.08
2023-12-27T20:59:32.945Z,3.40
2023-12-27T21:02:01.807Z,3.05
2023-12-27T21:04:31.174Z,2.42
2023-12-27T21:07:00.873Z,2.92
2023-12-27T21:09:29.655Z,3.28
2023-12-27T21:11:59.489Z,3.67
2023-12-27T21:14:29.333Z,3.00
2023-12-27T21:16:58.111Z,2.70
2023-12-27T21:19:27.356Z,3.72
2023-12-27T21:21:56.993Z,2.97
2023-12-27T21:24:25.570Z,2.90
2023-12-27T21:26:54.175Z,2.70
2023-12-27T21:29:23.882Z,2.80
2023-12-27T21:31:52.153Z,2.45
2023-12-27T21:34:20.826Z,3.00
2023-12-27T21:36:49.236Z,2.92
2023-12-27T21:39:17.863Z,2.22
2023-12-27T21:41:46.096Z,2.55
2023-12-27T21:44:14.792Z,2.88
2023-12-27T21:46:44.477Z,1.92
2023-12-27T21:49:13.508Z,1.75
2023-12-27T21:51:42.051Z,2.15
2023-12-27T21:54:10.738Z,1.80
2023-12-27T21:56:39.033Z,2.17
2023-12-27T21:59:07.596Z,2.05
2023-12-27T22:01:37.389Z,2.08
2023-12-27T22:04:08.705Z,1.58
2023-12-27T22:06:43.237Z,2.03
2023-12-27T22:09:11.984Z,1.58
2023-12-27T22:11:40.660Z,1.55
2023-12-27T22:14:09.801Z,1.02
2023-12-27T22:16:38.480Z,1.13
2023-12-27T22:19:08.854Z,1.15
2023-12-27T22:21:37.570Z,1.30
2023-12-27T22:24:06.914Z,1.50
2023-12-27T22:26:35.144Z,1.17
2023-12-27T22:29:03.641Z,0.98
2023-12-27T22:31:31.995Z,0.95
2023-12-27T22:34:00.477Z,1.25
2023-12-27T22:36:30.630Z,1.10
2023-12-27T22:38:58.968Z,0.75
2023-12-27T22:41:28.191Z,1.10
2023-12-27T22:43:56.769Z,0.73
2023-12-27T22:46:29.093Z,1.50
2023-12-27T22:48:57.871Z,0.63
2023-12-27T22:51:26.474Z,1.00
2023-12-27T22:53:56.390Z,1.08
2023-12-27T22:56:24.710Z,1.13
2023-12-27T22:58:52.972Z,1.13
2023-12-27T23:01:21.506Z,1.00
2023-12-27T23:03:49.881Z,1.02
2023-12-27T23:06:18.682Z,1.52
2023-12-27T23:08:47.096Z,1.20
2023-12-27T23:11:17.030Z,1.42
2023-12-27T23:13:45.438Z,0.63
2023-12-27T23:16:14.206Z,1.20
2023-12-27T23:18:42.954Z,1.50
2023-12-27T23:21:11.874Z,1.23
2023-12-27T23:23:40.572Z,1.17
2023-12-27T23:26:09.085Z,1.00
2023-12-27T23:28:39.052Z,1.10
2023-12-27T23:31:07.472Z,1.27
2023-12-27T23:33:36.196Z,1.65
2023-12-27T23:36:05.021Z,1.38
2023-12-27T23:38:33.613Z,1.05
2023-12-27T23:41:02.811Z,1.30
2023-12-27T23:43:31.278Z,2.38
2023-12-27T23:46:01.109Z,0.77
2023-12-27T23:48:29.707Z,1.20
2023-12-27T23:51:00.145Z,1.35
2023-12-27T23:53:28.722Z,1.02
2023-12-27T23:55:57.141Z,1.00
2023-12-27T23:58:26.135Z,1.27
